createdAt,value
2018-09-21T00:01:42.706Z,14.95
2018-09-21T00:04:45.832Z,17.03
2018-09-21T00:07:48.903Z,11.37
2018-09-21T00:10:52.075Z,13.77
2018-09-21T00:13:55.168Z,12.10
2018-09-21T00:16:58.242Z,13.67
2018-09-21T00:20:01.290Z,13.23
2018-09-21T00:23:04.407Z,14.70
2018-09-21T00:26:07.648Z,15.50
2018-09-21T00:29:10.717Z,12.37
2018-09-21T00:32:13.824Z,16.23
2018-09-21T00:35:16.901Z,15.73
2018-09-21T00:38:19.956Z,17.87
2018-09-21T00:41:22.991Z,10.90
2018-09-21T00:44:26.027Z,14.17
2018-09-21T00:47:29.095Z,13.37
2018-09-21T00:50:32.145Z,20.77
2018-09-21T00:53:35.187Z,11.37
2018-09-21T00:56:38.307Z,10.20
2018-09-21T00:59:41.391Z,16.50
2018-09-21T01:02:44.481Z,10.67
2018-09-21T01:05:47.639Z,13.97
2018-09-21T01:08:51.723Z,14.70
2018-09-21T01:11:54.789Z,12.05
2018-09-21T01:14:57.825Z,16.07
2018-09-21T01:18:00.900Z,13.50
2018-09-21T01:21:03.935Z,17.53
2018-09-21T01:24:06.964Z,14.37
2018-09-21T01:27:14.464Z,15.03
2018-09-21T01:30:17.488Z,13.47
2018-09-21T01:33:20.585Z,11.53
2018-09-21T01:36:23.684Z,17.93
2018-09-21T01:39:26.740Z,12.37
2018-09-21T01:42:29.820Z,9.73
2018-09-21T01:45:32.888Z,15.00
2018-09-21T01:48:35.963Z,11.93
2018-09-21T01:51:39.033Z,13.20
2018-09-21T01:54:42.153Z,13.93
2018-09-21T01:57:45.220Z,10.93
2018-09-21T02:00:48.664Z,11.40
2018-09-21T02:03:51.770Z,13.10
2018-09-21T02:06:54.848Z,12.45
2018-09-21T02:09:57.901Z,14.47
2018-09-21T02:13:00.987Z,13.67
2018-09-21T02:16:04.672Z,13.70
2018-09-21T02:19:07.804Z,10.20
2018-09-21T02:22:10.936Z,11.73
2018-09-21T02:25:13.980Z,13.83
2018-09-21T02:28:17.102Z,11.00
2018-09-21T02:31:20.229Z,15.87
2018-09-21T02:34:23.267Z,11.50
2018-09-21T02:37:26.464Z,13.30
2018-09-21T02:40:29.583Z,22.17
2018-09-21T02:43:32.616Z,14.07
2018-09-21T02:46:36.037Z,15.07
2018-09-21T02:49:39.069Z,12.57
2018-09-21T02:52:42.186Z,13.83
2018-09-21T02:55:45.211Z,9.97
2018-09-21T02:58:48.247Z,10.23
2018-09-21T03:01:51.308Z,14.17
2018-09-21T03:04:56.323Z,12.13
2018-09-21T03:07:59.361Z,12.57
2018-09-21T03:11:02.432Z,15.10
2018-09-21T03:14:05.498Z,12.67
2018-09-21T03:17:08.626Z,17.43
2018-09-21T03:20:11.658Z,13.13
2018-09-21T03:23:14.808Z,12.33
2018-09-21T03:26:17.877Z,16.67
2018-09-21T03:29:20.918Z,12.47
2018-09-21T03:32:24.005Z,13.37
2018-09-21T03:35:27.060Z,10.93
2018-09-21T03:38:30.132Z,11.60
2018-09-21T03:41:33.184Z,10.03
2018-09-21T03:44:36.259Z,13.03
2018-09-21T03:47:39.361Z,11.17
2018-09-21T03:50:42.440Z,16.37
2018-09-21T03:53:45.519Z,12.63
2018-09-21T03:56:48.580Z,8.67
2018-09-21T03:59:51.620Z,14.87
2018-09-21T04:02:54.745Z,12.10
2018-09-21T04:05:57.841Z,18.27
2018-09-21T04:09:00.996Z,13.07
2018-09-21T04:12:04.068Z,14.73
2018-09-21T04:15:07.452Z,15.93
2018-09-21T04:18:17.322Z,16.17
2018-09-21T04:21:20.388Z,10.83
2018-09-21T04:24:23.455Z,14.93
2018-09-21T04:27:26.900Z,15.63
2018-09-21T04:30:31.032Z,10.30
2018-09-21T04:33:34.227Z,10.00
2018-09-21T04:36:37.280Z,16.73
2018-09-21T04:39:40.447Z,15.50
2018-09-21T04:42:43.554Z,17.83
2018-09-21T04:45:46.740Z,9.97
2018-09-21T04:48:49.885Z,10.73
2018-09-21T04:51:53.001Z,15.83
2018-09-21T04:54:56.236Z,8.53
2018-09-21T04:57:59.283Z,13.77
2018-09-21T05:01:02.371Z,10.37
2018-09-21T05:04:05.438Z,10.63
2018-09-21T05:07:08.513Z,11.77
2018-09-21T05:10:11.588Z,14.07
2018-09-21T05:13:14.702Z,11.97
2018-09-21T05:16:17.783Z,13.17
2018-09-21T05:19:20.920Z,11.60
2018-09-21T05:22:24.104Z,12.80
2018-09-21T05:25:28.252Z,13.33
2018-09-21T05:28:31.347Z,14.60
2018-09-21T05:31:34.396Z,15.13
2018-09-21T05:34:37.828Z,18.07
2018-09-21T05:37:40.758Z,10.90
2018-09-21T05:40:43.805Z,16.67
2018-09-21T05:43:47.023Z,16.43
2018-09-21T05:46:50.151Z,13.40
2018-09-21T05:49:53.903Z,10.03
2018-09-21T05:52:56.944Z,9.80
2018-09-21T05:56:00.064Z,14.13
2018-09-21T05:59:03.438Z,11.87
2018-09-21T06:02:06.292Z,12.10
2018-09-21T06:05:09.320Z,13.83
2018-09-21T06:08:12.348Z,11.53
2018-09-21T06:11:15.504Z,10.50
2018-09-21T06:14:18.568Z,11.90
2018-09-21T06:17:21.680Z,10.50
2018-09-21T06:20:24.736Z,10.93
2018-09-21T06:23:27.820Z,10.60
2018-09-21T06:26:30.876Z,10.63
2018-09-21T06:29:33.932Z,15.03
2018-09-21T06:32:36.989Z,19.40
2018-09-21T06:35:41.118Z,11.15
2018-09-21T06:38:44.148Z,8.13
2018-09-21T06:41:47.190Z,9.93
2018-09-21T06:44:50.296Z,14.27
2018-09-21T06:47:53.414Z,11.37
2018-09-21T06:50:56.581Z,13.10
2018-09-21T06:53:59.800Z,11.73
2018-09-21T06:57:02.860Z,14.80
2018-09-21T07:00:06.035Z,12.30
2018-09-21T07:03:09.154Z,14.23
2018-09-21T07:06:12.202Z,13.03
2018-09-21T07:09:15.346Z,13.70
2018-09-21T07:12:18.465Z,8.57
2018-09-21T07:15:21.562Z,13.03
2018-09-21T07:18:24.606Z,10.83
2018-09-21T07:21:27.697Z,18.93
2018-09-21T07:24:30.774Z,12.47
2018-09-21T07:27:33.812Z,13.87
2018-09-21T07:30:36.878Z,10.47
2018-09-21T07:33:40.056Z,11.70
2018-09-21T07:36:43.096Z,12.60
2018-09-21T07:39:46.141Z,14.30
2018-09-21T07:42:49.234Z,12.80
2018-09-21T07:45:52.282Z,9.00
2018-09-21T07:48:55.708Z,8.10
2018-09-21T07:52:02.958Z,10.27
2018-09-21T07:55:06.058Z,10.83
2018-09-21T07:58:09.146Z,11.50
2018-09-21T08:01:13.296Z,15.67
2018-09-21T08:04:16.331Z,13.00
2018-09-21T08:07:19.793Z,18.10
2018-09-21T08:10:22.859Z,21.17
2018-09-21T08:13:25.932Z,11.73
2018-09-21T08:16:28.975Z,15.40
2018-09-21T08:19:32.042Z,16.13
2018-09-21T08:22:35.063Z,21.43
2018-09-21T08:25:38.108Z,15.33
2018-09-21T08:28:41.200Z,10.90
2018-09-21T08:31:44.359Z,13.33
2018-09-21T08:34:47.516Z,14.83
2018-09-21T08:37:50.608Z,12.60
2018-09-21T08:40:53.689Z,11.40
2018-09-21T08:43:56.792Z,14.97
2018-09-21T08:46:59.907Z,15.23
2018-09-21T08:50:02.964Z,16.70
2018-09-21T08:53:06.496Z,15.10
2018-09-21T08:56:09.573Z,15.73
2018-09-21T08:59:12.763Z,16.43
2018-09-21T09:02:16.008Z,11.67
2018-09-21T09:05:22.240Z,15.00
2018-09-21T09:08:25.809Z,14.17
2018-09-21T09:11:28.852Z,18.20
2018-09-21T09:14:31.921Z,9.17
2018-09-21T09:17:34.974Z,20.63
2018-09-21T09:20:38.046Z,14.57
2018-09-21T09:23:41.103Z,20.80
2018-09-21T09:26:44.186Z,24.30
2018-09-21T09:29:47.253Z,27.60
2018-09-21T09:32:50.334Z,27.80
2018-09-21T09:35:53.409Z,25.83
2018-09-21T09:38:56.477Z,19.03
2018-09-21T09:41:59.528Z,39.27
2018-09-21T09:45:02.570Z,31.07
2018-09-21T09:48:05.608Z,34.80
2018-09-21T09:51:08.666Z,31.73
2018-09-21T09:54:11.726Z,28.83
2018-09-21T09:57:14.844Z,32.97
2018-09-21T10:00:23.269Z,32.63
2018-09-21T10:03:26.498Z,36.13
2018-09-21T10:06:30.420Z,32.57
2018-09-21T10:09:33.480Z,36.27
2018-09-21T10:12:36.524Z,25.27
2018-09-21T10:15:39.816Z,22.27
2018-09-21T10:18:42.954Z,37.20
2018-09-21T10:21:45.991Z,31.17
2018-09-21T10:24:49.064Z,26.13
2018-09-21T10:27:52.469Z,36.90
2018-09-21T10:30:56.308Z,21.90
2018-09-21T10:33:59.328Z,9.27
2018-09-21T10:37:02.468Z,17.63
2018-09-21T10:40:05.732Z,18.70
2018-09-21T10:43:08.782Z,15.73
2018-09-21T10:46:11.772Z,13.63
2018-09-21T10:49:14.954Z,12.37
2018-09-21T10:52:18.015Z,10.30
2018-09-21T10:55:21.062Z,13.47
2018-09-21T10:58:24.112Z,25.40
2018-09-21T11:01:27.181Z,6.33
2018-09-21T11:04:30.476Z,19.30
2018-09-21T11:07:33.555Z,21.68
2018-09-21T11:10:36.646Z,27.23
2018-09-21T11:13:39.786Z,17.27
2018-09-21T11:16:42.899Z,12.60
2018-09-21T11:19:46.032Z,18.43
